Station: The Granites Airport  

  Atmospheric Gas Attenuation - ITU Rec 676-11   ----------------- dB/100km -----------------
Date Time Temp RH % AH g/m3 Dew Point Wind Direction Speed kph Gust kph Barometer mB Rainfall Since 9am 24GHz 47GHz 76GHz 122GHz 134GHz 241GHz
08/05 12:00 21 37 6.78 5.8 13 19 1013.1 0 15.4 21.3 30.0 78.3 68.7 235.2
08/05 11:50 20.7 37 6.66 5.8 15 19 1013.1 0 15.2 21.2 29.7 77.5 67.6 231.3
08/05 11:40 20.3 39 6.86 6.1 17 19 1013.1 0 15.6 21.6 30.5 79.7 70.2 240.4
08/05 11:30 20.1 40 6.95 6.1 17 20 1013.1 0 15.8 21.8 30.9 80.8 71.4 244.6
08/05 11:20 19.5 41 6.88 5.9 15 19 1013.1 0 15.7 21.8 30.9 80.7 71.1 243.6
08/05 11:10 19.5 40 6.71 5.7 22 24 1013.1 0 15.3 21.6 30.3 79.1 69.2 236.7
08/05 11:00 19.7 40 6.79 5.7 17 22 1013.1 0 15.5 21.6 30.5 79.7 69.9 239.4
08/05 10:50 19.3 40 6.63 5.6 19 20 1013.1 0 15.2 21.5 30.1 78.6 68.4 234.1
08/05 10:39 19 41 6.68 5.4 17 22 1013.1 0 15.3 21.6 30.4 79.3 69.3 237.0
08/05 10:30 19.2 41 6.76 5.6 17 24 1013.1 0 15.5 21.7 30.6 79.9 70.0 239.6
08/05 10:20 18.9 41 6.64 5.5 19 22 1013.1 0 15.2 21.6 30.3 79.1 68.9 235.7
08/05 10:10 18.4 42 6.61 5.3 20 22 1013.1 0 15.2 21.7 30.3 79.3 69.0 235.9
08/05 10:00 18.5 43 6.8 5.7 19 24 1013.1 0 15.6 21.9 31.0 80.9 71.1 243.3
08/05 09:50 18.1 43 6.64 5.4 20 24 1013.1 0 15.2 21.8 30.6 79.8 69.6 238.0
08/05 09:40 17.4 45 6.67 5.4 15 19 1013.1 0 15.3 22.0 30.9 80.8 70.5 241.3
08/05 09:30 16.7 47 6.68 5.3 20 30 1013.1 0 15.4 22.2 31.2 81.6 71.3 243.8
08/05 09:20 16.5 47 6.6 5.1 20 24 1013.1 0 15.2 22.1 31.0 81.0 70.5 241.1
08/05 09:10 16.2 47 6.48 5.1 17 22 1013.1 0 15.0 22.0 30.7 80.2 69.4 237.0
08/05 09:00 16 48 6.54 5 15 20 1013.1 0 15.1 22.1 31.0 81.0 70.2 240.1
08/05 08:50 15.5 49 6.48 4.8 15 19 1013.1 0 15.0 22.2 31.0 80.9 70.0 239.0
08/05 08:40 14.7 50 6.3 4.6 13 15 1013.1 0 14.7 22.1 30.6 79.9 68.5 233.9
08/05 08:30 14.2 52 6.35 4.5 11 17 1013.1 0 14.8 22.3 31.0 80.9 69.5 237.4
08/05 08:20 13.8 53 6.32 4.4 11 13 1013.1 0 14.7 22.4 31.0 81.0 69.5 237.3
08/05 08:10 13.2 55 6.32 4.3 9 11 1013.1 0 14.8 22.5 31.3 81.7 70.1 239.1
08/05 08:00 12.5 57 6.27 4.2 7 11 1013.1 0 14.7 22.6 31.3 81.9 70.1 239.0
08/05 07:50 11.9 59 6.25 4.2 7 9 1013.1 0 14.7 22.7 31.5 82.3 70.4 240.0
08/05 07:39 11.4 61 6.26 4.1 7 9 1013.1 0 14.7 22.9 31.7 82.9 70.9 241.9
08/05 07:30 11 62 6.21 4 7 11 1013.1 0 14.6 22.9 31.7 82.8 70.7 240.9
08/05 07:20 10.9 62 6.17 4 7 9 1013.1 0 14.5 22.8 31.6 82.5 70.3 239.5
08/05 07:10 10.7 63 6.19 4 7 11 1013.1 0 14.6 22.9 31.8 82.9 70.7 241.0
08/05 07:00 10.9 63 6.27 4.1 7 9 1013.1 0 14.7 23.0 32.0 83.5 71.5 243.9
08/05 06:50 11.1 61 6.15 4 7 9 1013.1 0 14.5 22.8 31.4 82.1 69.8 238.0
08/05 06:40 11.2 61 6.18 4 7 9 1013.1 0 14.5 22.8 31.5 82.3 70.1 239.0
08/05 06:30 11.5 60 6.2 4 7 11 1013.1 0 14.6 22.7 31.5 82.2 70.1 239.0
08/05 06:20 11.6 59 6.13 3.9 7 11 1013.1 0 14.4 22.6 31.2 81.4 69.1 235.6
08/05 06:10 11.5 60 6.2 4 9 13 1013.1 0 14.6 22.7 31.5 82.2 70.1 239.0
08/05 06:00 11.5 60 6.2 4 9 9 1013.1 0 14.6 22.7 31.5 82.2 70.1 239.0
08/05 05:50 11.5 60 6.2 4 9 13 1013.1 0 14.6 22.7 31.5 82.2 70.1 239.0
08/05 05:40 11.5 60 6.2 4 7 11 1013.1 0 14.6 22.7 31.5 82.2 70.1 239.0
08/05 05:30 11.5 60 6.2 4 7 11 1013.1 0 14.6 22.7 31.5 82.2 70.1 239.0
08/05 05:20 11.5 60 6.2 4.1 7 9 1013.1 0 14.6 22.7 31.5 82.2 70.1 239.0
08/05 05:10 11.7 59 6.17 4.1 7 9 1013.1 0 14.5 22.6 31.3 81.7 69.5 237.1
08/05 05:00 11.8 59 6.21 4.1 7 11 1013.1 0 14.6 22.7 31.4 82.0 70.0 238.5
08/05 04:50 12.2 57 6.15 4.1 7 7 1013.1 0 14.4 22.5 31.0 81.0 68.9 234.8
08/05 04:39 12.6 56 6.2 4.1 6 7 1013.1 0 14.5 22.5 31.1 81.1 69.1 235.7
08/05 04:30 12.9 55 6.2 4.1 7 11 1013.1 0 14.5 22.4 30.9 80.8 68.9 234.9
08/05 04:20 13.1 54 6.16 4 7 9 1013.1 0 14.4 22.3 30.7 80.2 68.2 232.6
08/05 04:10 13.2 53 6.09 4 7 9 1013.1 0 14.3 22.2 30.4 79.4 67.3 229.3
08/05 04:00 13.3 53 6.12 3.9 7 11 1013.1 0 14.3 22.2 30.5 79.6 67.5 230.3
08/05 03:50 13.2 53 6.09 4 9 11 1013.1 0 14.3 22.2 30.4 79.4 67.3 229.3
08/05 03:40 13.3 53 6.12 3.9 9 11 1013.1 0 14.3 22.2 30.5 79.6 67.5 230.3
08/05 03:30 13.4 53 6.16 4 9 11 1013.1 0 14.4 22.2 30.6 79.9 67.9 231.7
08/05 03:20 13.4 52 6.05 3.9 7 9 1013.1 0 14.2 22.1 30.2 78.8 66.6 227.0
08/05 03:10 13.5 52 6.08 3.9 9 11 1013.1 0 14.2 22.1 30.3 79.0 66.9 228.0
08/05 03:00 13.6 52 6.12 3.9 9 13 1013.1 0 14.3 22.1 30.4 79.3 67.3 229.4
08/05 02:50 13.5 52 6.08 3.8 9 13 1013.1 0 14.2 22.1 30.3 79.0 66.9 228.0
08/05 02:40 13.7 51 6.04 3.7 9 11 1013.1 0 14.1 22.0 30.1 78.4 66.2 225.8
08/05 02:30 14 50 6.03 3.8 9 13 1013.1 0 14.1 21.9 29.9 78.0 65.9 224.5
08/05 02:20 14.1 49 5.95 3.7 9 13 1013.1 0 13.9 21.7 29.6 77.2 64.8 220.9
08/05 02:10 14.3 48 5.9 3.6 7 11 1013.1 0 13.8 21.6 29.3 76.5 64.1 218.3
08/05 02:00 14.4 48 5.93 3.5 9 13 1013.1 0 13.9 21.6 29.4 76.7 64.4 219.3
08/05 01:50 14.5 47 5.85 3.5 9 11 1013.1 0 13.7 21.5 29.1 75.8 63.3 215.7
08/05 01:40 14.5 47 5.85 3.4 9 11 1013.1 0 13.7 21.5 29.1 75.8 63.3 215.7
08/05 01:30 14.6 47 5.88 3.4 9 13 1013.1 0 13.8 21.5 29.2 76.0 63.6 216.6
08/05 01:20 14.5 47 5.85 3.3 7 11 1013.1 0 13.7 21.5 29.1 75.8 63.3 215.7
08/05 01:10 14.4 47 5.81 3.4 7 9 1013.1 0 13.6 21.5 29.0 75.5 63.0 214.3
08/05 01:00 15.3 45 5.88 3.5 7 11 1013.1 0 13.7 21.4 28.9 75.4 63.1 214.8
08/05 00:50 16.1 42 5.76 3.3 7 9 1013.1 0 13.5 21.0 28.2 73.5 61.1 207.8
08/05 00:40 16.5 41 5.76 3.2 9 11 1013.1 0 13.5 20.9 28.1 73.1 60.8 206.8
08/05 00:30 16.7 41 5.83 3.4 7 11 1013.1 0 13.6 21.0 28.2 73.6 61.4 209.1
08/05 00:20 17 39 5.64 3.2 7 11 1013.1 0 13.2 20.6 27.5 71.6 59.0 200.8
08/05 00:10 17.2 39 5.71 3.2 11 11 1013.1 0 13.3 20.7 27.7 72.1 59.7 203.1
08/05 00:00 17.3 39 5.75 3.2 9 13 1013.1 0 13.4 20.7 27.8 72.3 60.0 204.4
07/05 23:50 17.2 39 5.71 3.1 9 11 1013.1 0 13.3 20.7 27.7 72.1 59.7 203.1
07/05 23:40 17.2 39 5.71 3.1 9 11 1013.1 0 13.3 20.7 27.7 72.1 59.7 203.1
07/05 23:30 17 39 5.64 3 7 11 1013.1 0 13.2 20.6 27.5 71.6 59.0 200.8
07/05 23:20 17 39 5.64 3 9 11 1013.1 0 13.2 20.6 27.5 71.6 59.0 200.8
07/05 23:10 16.9 39 5.61 3 9 11 1013.1 0 13.1 20.6 27.4 71.4 58.8 199.8
07/05 23:00 16.7 40 5.68 3.1 7 11 1013.1 0 13.3 20.8 27.7 72.2 59.7 203.1
07/05 22:50 16.7 39 5.54 2.8 7 9 1013.1 0 13.0 20.6 27.2 70.9 58.1 197.6
07/05 22:40 16.5 39 5.48 2.6 7 9 1013.1 0 12.9 20.5 27.1 70.6 57.6 195.7
07/05 22:30 16.3 40 5.55 2.7 7 11 1013.1 0 13.0 20.7 27.4 71.4 58.5 198.9
07/05 22:20 16.9 37 5.32 2.4 7 9 1013.1 0 12.5 20.2 26.4 68.8 55.5 188.4
07/05 22:10 16.8 38 5.43 2.4 7 11 1013.1 0 12.7 20.4 26.8 69.9 56.8 193.0
07/05 22:00 17 37 5.35 2.2 7 9 1013.1 0 12.6 20.2 26.5 69.0 55.8 189.4
07/05 21:50 16.1 40 5.48 2.6 7 7 1013.1 0 12.9 20.6 27.2 70.9 57.9 196.6
07/05 21:40 15.9 41 5.55 2.8 6 7 1013.1 0 13.0 20.8 27.5 71.7 58.8 199.9
07/05 21:30 16 41 5.59 2.8 6 7 1013.1 0 13.1 20.8 27.7 72.0 59.2 201.3
07/05 21:20 16.2 40 5.52 2.7 6 7 1013.1 0 13.0 20.6 27.3 71.2 58.2 198.0
07/05 21:10 16.8 38 5.43 2.5 6 7 1013.1 0 12.7 20.4 26.8 69.9 56.8 193.0
07/05 21:00 16.9 38 5.47 2.5 7 9 1013.1 0 12.8 20.4 26.9 70.1 57.2 194.3
07/05 20:50 17.8 35 5.31 2.2 6 7 1013.1 0 12.5 20.0 26.1 67.9 54.8 186.0
07/05 20:40 16.3 40 5.55 2.7 7 9 1013.1 0 13.0 20.7 27.4 71.4 58.5 198.9
07/05 20:30 17.4 36 5.33 2.2 6 9 1013.1 0 12.5 20.1 26.3 68.4 55.3 187.7
07/05 20:20 17.9 34 5.19 2 7 7 1013.1 0 12.2 19.8 25.7 66.8 53.4 181.1
07/05 20:10 18.3 33 5.16 2 7 7 1013.1 0 12.1 19.7 25.5 66.2 52.8 179.1
07/05 20:00 18.5 33 5.22 1.9 7 9 1013.1 0 12.3 19.7 25.6 66.6 53.3 181.0
07/05 19:50 18.5 33 5.22 2 7 7 1013.1 0 12.3 19.7 25.6 66.6 53.3 181.0
07/05 19:40 18.6 33 5.25 2.1 7 9 1013.1 0 12.3 19.8 25.7 66.8 53.6 181.9
07/05 19:30 18.8 33 5.31 2.2 6 7 1013.1 0 12.4 19.8 25.8 67.1 54.1 183.7

Last Refresh: 08-May-2026 12:09:23

Bureau of Meteorology